Time;durP1;ratioP1;P1;durP2;ratioP2;P2;SDS_P1;SDS_P2;PMS_P1;PMS_P2;Temp;Humidity;BMP_temperature;BMP_pressure;BME280_temperature;BME280_humidity;BME280_pressure;Samples;Min_cycle;Max_cycle;Signal;HPM_P1;HPM_P2
2021/12/30 00:01:57;;;;;;;1.80;0.60;;;;;;;;;;4973535;28;20199;-85
2021/12/30 00:04:28;;;;;;;0.60;0.60;;;;;;;;;;4967945;28;20290;-86
2021/12/30 00:06:57;;;;;;;1.50;0.70;;;;;;;;;;4984359;28;20208;-84
2021/12/30 00:09:25;;;;;;;1.07;0.50;;;;;;;;;;4992999;28;20207;-85
2021/12/30 00:11:52;;;;;;;0.60;0.60;;;;;;;;;;4980317;28;20203;-85
2021/12/30 00:14:20;;;;;;;0.87;0.77;;;;;;;;;;4992988;28;20234;-85
2021/12/30 00:16:47;;;;;;;0.70;0.70;;;;;;;;;;4985753;28;20216;-85
2021/12/30 00:19:14;;;;;;;1.40;0.60;;;;;;;;;;4974201;28;20203;-85
2021/12/30 00:21:42;;;;;;;1.47;0.70;;;;;;;;;;4973786;28;20207;-85
2021/12/30 00:24:11;;;;;;;1.57;0.90;;;;;;;;;;4967595;28;20223;-85
2021/12/30 00:26:38;;;;;;;1.93;1.00;;;;;;;;;;4967435;28;20258;-85
2021/12/30 00:29:06;;;;;;;3.00;1.10;;;;;;;;;;4966880;28;20282;-85
2021/12/30 00:31:33;;;;;;;1.27;0.83;;;;;;;;;;4966240;28;20232;-85
2021/12/30 00:34:00;;;;;;;1.10;0.90;;;;;;;;;;4978797;28;20215;-85
2021/12/30 00:36:28;;;;;;;1.80;1.07;;;;;;;;;;4992290;28;20261;-85
2021/12/30 00:38:55;;;;;;;1.60;0.90;;;;;;;;;;4981964;28;20258;-85
2021/12/30 00:41:24;;;;;;;1.37;1.00;;;;;;;;;;4979254;28;20211;-85
2021/12/30 00:43:51;;;;;;;1.83;1.17;;;;;;;;;;4978901;28;20295;-85
2021/12/30 00:46:18;;;;;;;1.30;0.80;;;;;;;;;;4985888;28;20299;-85
2021/12/30 00:48:46;;;;;;;2.53;1.17;;;;;;;;;;4979758;28;20247;-85
2021/12/30 00:51:13;;;;;;;1.57;0.90;;;;;;;;;;4972627;28;20230;-85
2021/12/30 00:53:41;;;;;;;0.80;0.80;;;;;;;;;;4981101;28;20200;-85
2021/12/30 00:56:09;;;;;;;1.53;0.93;;;;;;;;;;4973578;28;20207;-86
2021/12/30 00:58:37;;;;;;;1.60;0.97;;;;;;;;;;4973272;28;20231;-85
2021/12/30 01:01:05;;;;;;;0.97;0.90;;;;;;;;;;4991466;28;20203;-85
2021/12/30 01:03:34;;;;;;;1.27;0.83;;;;;;;;;;4985630;28;20272;-86
2021/12/30 01:06:01;;;;;;;1.30;0.80;;;;;;;;;;4976077;28;20298;-85
2021/12/30 01:08:29;;;;;;;1.17;0.70;;;;;;;;;;4990404;28;20243;-85
2021/12/30 01:10:56;;;;;;;1.90;1.00;;;;;;;;;;4998696;28;20226;-85
2021/12/30 01:13:30;;;;;;;1.57;0.97;;;;;;;;;;4982165;28;20204;-85
2021/12/30 01:16:01;;;;;;;1.17;0.90;;;;;;;;;;4987049;28;20227;-85
2021/12/30 01:18:36;;;;;;;1.70;0.90;;;;;;;;;;4972239;28;20219;-85
2021/12/30 01:21:05;;;;;;;0.97;0.93;;;;;;;;;;4975148;28;20214;-85
2021/12/30 01:23:32;;;;;;;1.10;0.93;;;;;;;;;;4991953;28;20204;-85
2021/12/30 01:26:00;;;;;;;2.07;1.00;;;;;;;;;;5014452;28;20195;-85
2021/12/30 01:28:28;;;;;;;1.37;1.20;;;;;;;;;;4997397;28;20278;-85
2021/12/30 01:30:56;;;;;;;1.60;1.00;;;;;;;;;;5014992;28;20255;-85
2021/12/30 01:33:25;;;;;;;1.67;1.20;;;;;;;;;;4995640;28;20215;-85
2021/12/30 01:35:52;;;;;;;1.57;1.00;;;;;;;;;;4993565;28;20200;-85
2021/12/30 01:38:19;;;;;;;0.90;0.90;;;;;;;;;;4990843;28;20227;-85
2021/12/30 01:40:49;;;;;;;1.00;0.73;;;;;;;;;;4994155;28;20195;-85
2021/12/30 01:43:17;;;;;;;1.20;0.80;;;;;;;;;;4996986;28;20298;-85
2021/12/30 01:45:45;;;;;;;0.90;0.90;;;;;;;;;;4994847;28;20299;-85
2021/12/30 01:48:13;;;;;;;1.03;0.80;;;;;;;;;;4977922;28;20239;-85
2021/12/30 01:50:42;;;;;;;0.93;0.90;;;;;;;;;;4980495;28;20270;-85
2021/12/30 01:53:10;;;;;;;2.40;1.00;;;;;;;;;;4996875;28;20246;-85
2021/12/30 01:55:38;;;;;;;1.50;1.10;;;;;;;;;;4994092;28;20226;-85
2021/12/30 01:58:06;;;;;;;1.20;1.00;;;;;;;;;;4991005;28;20232;-85
2021/12/30 02:00:34;;;;;;;2.47;1.20;;;;;;;;;;4994120;28;20203;-83
2021/12/30 02:03:01;;;;;;;1.63;1.00;;;;;;;;;;4977497;28;20233;-85
2021/12/30 02:05:29;;;;;;;2.70;1.27;;;;;;;;;;4975884;28;20207;-85
2021/12/30 02:07:58;;;;;;;3.50;1.20;;;;;;;;;;4990435;28;20235;-85
2021/12/30 02:10:25;;;;;;;1.70;1.30;;;;;;;;;;4997270;28;20223;-85
2021/12/30 02:12:52;;;;;;;1.20;1.10;;;;;;;;;;4989323;28;20207;-85
2021/12/30 02:15:20;;;;;;;3.00;1.60;;;;;;;;;;4978244;28;20244;-86
2021/12/30 02:17:49;;;;;;;1.10;1.00;;;;;;;;;;4990281;28;20207;-85
2021/12/30 02:20:32;;;;;;;3.70;1.30;;;;;;;;;;4988184;28;20215;-85
2021/12/30 02:23:00;;;;;;;4.33;1.80;;;;;;;;;;4975109;28;20317;-85
2021/12/30 02:25:28;;;;;;;2.63;1.10;;;;;;;;;;4988802;28;20267;-85
2021/12/30 02:27:55;;;;;;;2.23;1.20;;;;;;;;;;5000067;28;20224;-85
2021/12/30 02:30:22;;;;;;;3.03;1.43;;;;;;;;;;4990324;28;20302;-84
2021/12/30 02:32:49;;;;;;;2.00;1.23;;;;;;;;;;4979210;28;20215;-85
2021/12/30 02:35:17;;;;;;;1.47;0.97;;;;;;;;;;4980963;28;20268;-85
2021/12/30 02:37:44;;;;;;;3.13;1.10;;;;;;;;;;4980742;28;20283;-84
2021/12/30 02:40:13;;;;;;;2.30;1.10;;;;;;;;;;4981932;28;20677;-84
2021/12/30 02:42:41;;;;;;;2.27;0.90;;;;;;;;;;4975113;28;20212;-84
2021/12/30 02:45:08;;;;;;;1.80;1.20;;;;;;;;;;4987477;28;20262;-85
2021/12/30 02:47:36;;;;;;;0.90;0.80;;;;;;;;;;4986276;28;20227;-85
2021/12/30 02:50:03;;;;;;;1.20;0.90;;;;;;;;;;4981626;28;20204;-84
2021/12/30 02:52:30;;;;;;;1.13;1.00;;;;;;;;;;4981947;28;20216;-85
2021/12/30 02:54:58;;;;;;;2.70;1.17;;;;;;;;;;4993177;28;20211;-85
2021/12/30 02:57:27;;;;;;;1.70;0.90;;;;;;;;;;4994135;28;20226;-84
2021/12/30 02:59:55;;;;;;;1.20;0.73;;;;;;;;;;4982743;28;20228;-85
2021/12/30 03:02:22;;;;;;;2.10;0.83;;;;;;;;;;4983413;28;20278;-85
2021/12/30 03:04:49;;;;;;;2.03;1.10;;;;;;;;;;4987855;28;20273;-85
2021/12/30 03:07:18;;;;;;;1.20;0.80;;;;;;;;;;4974996;28;20283;-84
2021/12/30 03:09:45;;;;;;;1.17;0.90;;;;;;;;;;4989555;28;20203;-85
2021/12/30 03:12:12;;;;;;;0.90;0.80;;;;;;;;;;4984473;28;20262;-85
2021/12/30 03:14:42;;;;;;;0.80;0.80;;;;;;;;;;4979170;28;20204;-85
2021/12/30 03:17:11;;;;;;;1.17;0.97;;;;;;;;;;4984270;28;20223;-85
2021/12/30 03:19:38;;;;;;;1.33;0.93;;;;;;;;;;4974618;28;20232;-85
2021/12/30 03:22:06;;;;;;;0.70;0.70;;;;;;;;;;4973747;28;20267;-85
2021/12/30 03:24:35;;;;;;;1.10;0.80;;;;;;;;;;4985570;28;20207;-85
2021/12/30 03:27:03;;;;;;;1.43;0.70;;;;;;;;;;4993886;28;20713;-85
2021/12/30 03:29:30;;;;;;;0.87;0.87;;;;;;;;;;4986262;28;20231;-85
2021/12/30 03:31:59;;;;;;;0.70;0.70;;;;;;;;;;4989026;28;20254;-85
2021/12/30 03:37:40;;;;;;;0.80;0.70;;;;;;;;;;4983457;28;20223;-86
2021/12/30 03:40:13;;;;;;;0.67;0.67;;;;;;;;;;5000033;28;20194;-87
2021/12/30 03:42:42;;;;;;;1.37;1.00;;;;;;;;;;4994917;28;20206;-86
2021/12/30 03:45:10;;;;;;;1.93;0.80;;;;;;;;;;4984579;28;20216;-88
2021/12/30 03:47:44;;;;;;;1.10;0.90;;;;;;;;;;4977635;28;20239;-87
2021/12/30 03:50:20;;;;;;;0.93;0.83;;;;;;;;;;4978867;28;20210;-87
2021/12/30 03:52:59;;;;;;;1.23;0.80;;;;;;;;;;4980352;28;20218;-87
2021/12/30 03:55:34;;;;;;;0.80;0.80;;;;;;;;;;4983934;28;20204;-86
2021/12/30 03:58:09;;;;;;;0.82;0.70;;;;;;;;;;4967648;28;20235;-87
2021/12/30 04:00:39;;;;;;;0.80;0.80;;;;;;;;;;4980588;28;20210;-86
2021/12/30 04:03:17;;;;;;;0.80;0.80;;;;;;;;;;4982722;28;20208;-86
2021/12/30 04:05:45;;;;;;;0.53;0.50;;;;;;;;;;4972481;28;20204;-86
2021/12/30 07:08:09;;;;;;;0.63;0.63;;;;;;;;;;4968552;28;20317;-86
2021/12/30 07:10:36;;;;;;;0.53;0.53;;;;;;;;;;4967054;28;20267;-82
2021/12/30 07:13:35;;;;;;;1.10;0.70;;;;;;;;;;4969685;28;20232;-85
2021/12/30 07:16:34;;;;;;;0.50;0.50;;;;;;;;;;4969192;28;20207;-85
2021/12/30 07:19:08;;;;;;;0.83;0.70;;;;;;;;;;4969633;28;20282;-86
2021/12/30 07:27:44;;;;;;;1.23;1.00;;;;;;;;;;4968426;28;20236;-85
2021/12/30 07:30:13;;;;;;;0.80;0.80;;;;;;;;;;4967393;28;20236;-85
2021/12/30 07:32:48;;;;;;;0.63;0.63;;;;;;;;;;4972096;28;20232;-85
2021/12/30 07:35:26;;;;;;;0.80;0.80;;;;;;;;;;4966433;28;20291;-85
2021/12/30 07:41:07;;;;;;;1.27;1.10;;;;;;;;;;4967110;28;20200;-85
2021/12/30 07:44:12;;;;;;;0.90;0.90;;;;;;;;;;4971518;28;20278;-85
2021/12/30 07:49:57;;;;;;;0.93;0.93;;;;;;;;;;5068625;23;20235;-85
2021/12/30 07:52:52;;;;;;;0.90;0.90;;;;;;;;;;4970917;28;20219;-86
2021/12/30 07:58:56;;;;;;;1.73;0.60;;;;;;;;;;4978956;28;20216;-85
2021/12/30 08:05:20;;;;;;;0.60;0.60;;;;;;;;;;4909077;29;20202;-85
2021/12/30 08:08:08;;;;;;;0.70;0.70;;;;;;;;;;4911132;29;20718;-85
2021/12/30 08:14:07;;;;;;;0.70;0.70;;;;;;;;;;4902405;29;20202;-85
2021/12/30 08:17:05;;;;;;;0.93;0.70;;;;;;;;;;4911234;29;20217;-85
2021/12/30 08:25:49;;;;;;;4.33;1.30;;;;;;;;;;4912145;29;20587;-85
2021/12/30 08:28:37;;;;;;;2.47;1.52;;;;;;;;;;4909961;29;20223;-85
2021/12/30 08:31:24;;;;;;;1.80;1.13;;;;;;;;;;4911063;29;20218;-85
2021/12/30 08:34:05;;;;;;;0.93;0.70;;;;;;;;;;4912376;29;20206;-85
2021/12/30 08:36:41;;;;;;;0.70;0.70;;;;;;;;;;4971895;28;20211;-85
2021/12/30 08:39:09;;;;;;;1.47;1.20;;;;;;;;;;4975825;28;20231;-84
2021/12/30 08:44:22;;;;;;;1.20;1.10;;;;;;;;;;4975622;28;20239;-85
2021/12/30 08:47:13;;;;;;;1.43;0.90;;;;;;;;;;4975452;28;20212;-85
2021/12/30 08:49:53;;;;;;;2.03;1.33;;;;;;;;;;4959923;28;20196;-85
2021/12/30 08:52:55;;;;;;;1.93;1.73;;;;;;;;;;4985042;28;20274;-85
2021/12/30 08:58:53;;;;;;;2.73;2.10;;;;;;;;;;4954356;28;20220;-84
2021/12/30 09:01:28;;;;;;;1.30;1.20;;;;;;;;;;4978237;28;20211;-84
2021/12/30 10:11:21;;;;;;;0.60;0.60;;;;;;;;;;4955509;28;20312;-86
2021/12/30 10:13:56;;;;;;;0.98;0.88;;;;;;;;;;4947987;28;20667;-88
2021/12/30 10:16:24;;;;;;;0.70;0.70;;;;;;;;;;4957138;29;20207;-87
2021/12/30 10:18:53;;;;;;;0.98;0.80;;;;;;;;;;4957366;28;20231;-88
2021/12/30 10:21:22;;;;;;;1.95;1.20;;;;;;;;;;4950626;29;20212;-88
2021/12/30 10:23:52;;;;;;;0.60;0.60;;;;;;;;;;4954220;28;20624;-88
2021/12/30 10:26:22;;;;;;;0.70;0.70;;;;;;;;;;4960882;28;20263;-86
2021/12/30 10:28:53;;;;;;;0.70;0.70;;;;;;;;;;5154975;23;20215;-88
2021/12/30 10:31:27;;;;;;;0.88;0.70;;;;;;;;;;4994938;28;20251;-86
2021/12/30 10:33:56;;;;;;;0.70;0.70;;;;;;;;;;4995433;28;20188;-89
2021/12/30 10:36:24;;;;;;;0.98;0.88;;;;;;;;;;4994961;28;20184;-86
2021/12/30 10:42:21;;;;;;;1.58;0.70;;;;;;;;;;4975718;28;20193;-88
2021/12/30 10:44:54;;;;;;;1.48;0.70;;;;;;;;;;4987436;28;20194;-89
2021/12/30 10:47:27;;;;;;;1.85;1.33;;;;;;;;;;4996077;28;20199;-88
2021/12/30 10:50:27;;;;;;;0.80;0.80;;;;;;;;;;4997319;28;20238;-92
2021/12/30 10:52:55;;;;;;;0.90;0.77;;;;;;;;;;4938285;29;20288;-88
2021/12/30 10:55:24;;;;;;;0.60;0.60;;;;;;;;;;4983733;28;20180;-89
2021/12/30 10:57:52;;;;;;;0.90;0.80;;;;;;;;;;4997002;28;20191;-88
2021/12/30 11:00:27;;;;;;;0.95;0.63;;;;;;;;;;4997867;28;20252;-83
2021/12/30 11:02:54;;;;;;;0.70;0.70;;;;;;;;;;4997035;28;20199;-86
2021/12/30 11:05:22;;;;;;;0.45;0.45;;;;;;;;;;4995103;28;20203;-85
2021/12/30 11:07:51;;;;;;;0.73;0.73;;;;;;;;;;4983892;28;20208;-86
2021/12/30 11:10:29;;;;;;;0.82;0.68;;;;;;;;;;4976170;28;20227;-85
2021/12/30 11:12:59;;;;;;;0.70;0.70;;;;;;;;;;4971129;28;20233;-85
2021/12/30 11:15:32;;;;;;;0.50;0.50;;;;;;;;;;4976198;28;20248;-86
2021/12/30 11:18:08;;;;;;;0.60;0.60;;;;;;;;;;4975653;28;20318;-85
2021/12/30 11:20:41;;;;;;;0.60;0.60;;;;;;;;;;4972113;28;20230;-87
2021/12/30 11:23:09;;;;;;;2.50;1.20;;;;;;;;;;4971592;28;20278;-86
2021/12/30 11:25:36;;;;;;;2.03;1.15;;;;;;;;;;4973253;28;20250;-86
2021/12/30 11:28:04;;;;;;;0.73;0.70;;;;;;;;;;4977487;28;20204;-86
2021/12/30 11:30:33;;;;;;;0.70;0.70;;;;;;;;;;4984595;28;20234;-86
2021/12/30 11:33:01;;;;;;;0.50;0.50;;;;;;;;;;4972345;28;20223;-86
2021/12/30 11:35:29;;;;;;;0.50;0.50;;;;;;;;;;4973427;28;20226;-86
2021/12/30 11:38:00;;;;;;;0.30;0.30;;;;;;;;;;4987704;28;20259;-83
2021/12/30 11:40:29;;;;;;;0.65;0.65;;;;;;;;;;4974941;28;20327;-84
2021/12/30 11:42:59;;;;;;;0.50;0.50;;;;;;;;;;4970500;28;20199;-83
2021/12/30 11:45:28;;;;;;;0.80;0.80;;;;;;;;;;4977259;28;20798;-81
2021/12/30 11:47:57;;;;;;;1.23;0.50;;;;;;;;;;4977313;28;20200;-84
2021/12/30 11:50:32;;;;;;;0.40;0.40;;;;;;;;;;4975208;28;20224;-81
2021/12/30 11:53:11;;;;;;;0.50;0.50;;;;;;;;;;4976930;28;20234;-84
2021/12/30 11:55:55;;;;;;;0.70;0.70;;;;;;;;;;4974649;28;20208;-82
2021/12/30 11:58:40;;;;;;;0.47;0.35;;;;;;;;;;4976825;28;20207;-85
2021/12/30 12:01:23;;;;;;;0.50;0.50;;;;;;;;;;4975506;28;20697;-84
2021/12/30 12:03:57;;;;;;;0.45;0.45;;;;;;;;;;4976569;28;20203;-82
2021/12/30 12:06:31;;;;;;;0.30;0.28;;;;;;;;;;4972992;28;20302;-85
2021/12/30 12:09:02;;;;;;;0.40;0.40;;;;;;;;;;4976411;28;20223;-84
2021/12/30 12:11:33;;;;;;;0.85;0.63;;;;;;;;;;4972341;28;20202;-84
2021/12/30 12:14:27;;;;;;;0.30;0.30;;;;;;;;;;4973704;28;20219;-89
2021/12/30 12:16:59;;;;;;;0.63;0.63;;;;;;;;;;4974665;28;20264;-85
2021/12/30 12:19:35;;;;;;;0.55;0.55;;;;;;;;;;4975982;28;20306;-83
2021/12/30 12:22:03;;;;;;;0.63;0.50;;;;;;;;;;4979633;28;20207;-84
2021/12/30 12:24:34;;;;;;;1.40;1.30;;;;;;;;;;4980134;28;20247;-84
2021/12/30 12:27:03;;;;;;;0.40;0.40;;;;;;;;;;4980481;28;20207;-85
2021/12/30 12:29:32;;;;;;;1.15;0.80;;;;;;;;;;4974181;28;20231;-84
2021/12/30 12:32:10;;;;;;;1.45;1.33;;;;;;;;;;4976262;28;20290;-83
2021/12/30 12:34:40;;;;;;;1.02;0.80;;;;;;;;;;4978929;28;20200;-85
2021/12/30 12:37:24;;;;;;;1.27;1.10;;;;;;;;;;4979402;28;20211;-85
2021/12/30 12:39:56;;;;;;;1.15;0.90;;;;;;;;;;4976611;28;20320;-84
2021/12/30 12:42:44;;;;;;;0.82;0.63;;;;;;;;;;4976607;28;20200;-84
2021/12/30 12:45:18;;;;;;;1.55;1.45;;;;;;;;;;4978362;28;20200;-84
2021/12/30 12:47:45;;;;;;;2.33;2.13;;;;;;;;;;4973776;28;20303;-82
2021/12/30 12:50:15;;;;;;;0.70;0.70;;;;;;;;;;4978430;28;20224;-84
2021/12/30 12:52:45;;;;;;;0.60;0.60;;;;;;;;;;4971890;28;20219;-84
2021/12/30 12:55:13;;;;;;;0.40;0.40;;;;;;;;;;4981370;28;20252;-85
2021/12/30 12:57:41;;;;;;;0.90;0.90;;;;;;;;;;4977775;28;20208;-85
2021/12/30 13:00:09;;;;;;;1.40;0.93;;;;;;;;;;4975226;28;20726;-84
2021/12/30 13:02:36;;;;;;;0.40;0.40;;;;;;;;;;4977780;28;20196;-85
2021/12/30 13:05:09;;;;;;;1.30;1.20;;;;;;;;;;4981863;28;20232;-84
2021/12/30 13:07:38;;;;;;;0.90;0.90;;;;;;;;;;4982911;28;20204;-86
2021/12/30 13:10:07;;;;;;;2.50;1.58;;;;;;;;;;4981323;28;20255;-85
2021/12/30 13:12:38;;;;;;;2.53;1.67;;;;;;;;;;4980973;28;20246;-82
2021/12/30 13:15:10;;;;;;;0.75;0.70;;;;;;;;;;4978744;28;20211;-81
2021/12/30 13:17:38;;;;;;;1.10;1.00;;;;;;;;;;4988554;28;20211;-81
2021/12/30 13:20:06;;;;;;;0.93;0.90;;;;;;;;;;4991531;28;20216;-81
2021/12/30 13:22:36;;;;;;;0.80;0.80;;;;;;;;;;4983251;28;20226;-82
2021/12/30 13:25:06;;;;;;;1.20;0.40;;;;;;;;;;4981799;28;20232;-83
2021/12/30 13:30:35;;;;;;;0.90;0.85;;;;;;;;;;4957259;28;20247;-83
2021/12/30 13:33:04;;;;;;;0.60;0.60;;;;;;;;;;4982082;28;20232;-86
2021/12/30 13:35:34;;;;;;;1.25;1.00;;;;;;;;;;4977268;28;20670;-84
2021/12/30 13:38:08;;;;;;;1.30;1.20;;;;;;;;;;4977928;28;20239;-86
2021/12/30 13:40:46;;;;;;;0.60;0.60;;;;;;;;;;4974456;28;20239;-87
2021/12/30 13:43:14;;;;;;;0.73;0.73;;;;;;;;;;4976427;28;20230;-85
2021/12/30 13:45:52;;;;;;;2.70;2.28;;;;;;;;;;4978980;28;20295;-86
2021/12/30 13:48:20;;;;;;;1.70;1.60;;;;;;;;;;4972166;28;20211;-88
2021/12/30 13:50:53;;;;;;;1.55;1.45;;;;;;;;;;4975505;28;20215;-90
2021/12/30 13:53:21;;;;;;;1.52;1.40;;;;;;;;;;4976846;28;20286;-84
2021/12/30 13:55:51;;;;;;;0.50;0.50;;;;;;;;;;4983642;28;20295;-84
2021/12/30 14:08:45;;;;;;;2.47;2.20;;;;;;;;;;4959289;28;20225;-85
2021/12/30 14:11:23;;;;;;;0.93;0.93;;;;;;;;;;4956995;28;20201;-85
2021/12/30 14:13:50;;;;;;;0.68;0.68;;;;;;;;;;4957616;28;20239;-85
2021/12/30 14:16:20;;;;;;;0.45;0.45;;;;;;;;;;4962258;28;20205;-86
2021/12/30 14:18:48;;;;;;;0.50;0.50;;;;;;;;;;4958048;28;20241;-86
2021/12/30 14:21:15;;;;;;;0.30;0.30;;;;;;;;;;4955803;29;20244;-87
2021/12/30 14:31:16;;;;;;;;;;;;;;;;;;;;;
2021/12/30 15:15:09;;;;;;;0.70;0.70;;;;;;;;;;4623731;30;20236;-83
2021/12/30 15:17:51;;;;;;;1.63;1.30;;;;;;;;;;4657191;30;20250;-83
2021/12/30 15:20:37;;;;;;;0.90;0.90;;;;;;;;;;4654363;30;20254;-83
2021/12/30 15:23:04;;;;;;;3.53;2.80;;;;;;;;;;4746878;29;20213;-83
2021/12/30 15:25:59;;;;;;;1.65;1.20;;;;;;;;;;4846895;29;20265;-85
2021/12/30 15:28:35;;;;;;;1.30;1.20;;;;;;;;;;4845717;29;20211;-84
2021/12/30 15:31:05;;;;;;;0.73;0.73;;;;;;;;;;4846573;29;20216;-84
2021/12/30 15:33:39;;;;;;;1.35;0.90;;;;;;;;;;4846323;29;20228;-82
2021/12/30 15:36:33;;;;;;;0.85;0.77;;;;;;;;;;4846513;29;20295;-83
2021/12/30 15:39:17;;;;;;;0.68;0.68;;;;;;;;;;4839407;29;20260;-84
2021/12/30 15:41:44;;;;;;;0.68;0.68;;;;;;;;;;4852266;29;20216;-85
2021/12/30 15:44:25;;;;;;;;;;;;;;;;;;;;;
2021/12/30 15:46:55;;;;;;;7.55;6.78;;;;;;;;;;4908959;29;20204;-84
2021/12/30 15:49:25;;;;;;;3.33;2.58;;;;;;;;;;4905667;29;20234;-84
2021/12/30 15:54:40;;;;;;;1.40;1.30;;;;;;;;;;4901674;29;20222;-85
2021/12/30 15:57:20;;;;;;;4.20;3.63;;;;;;;;;;4902760;29;20207;-84
2021/12/30 16:02:35;;;;;;;2.15;1.55;;;;;;;;;;4892379;29;20217;-85
2021/12/30 16:05:09;;;;;;;2.95;2.72;;;;;;;;;;4895637;29;20267;-86
2021/12/30 16:07:44;;;;;;;1.10;1.00;;;;;;;;;;4894615;29;20203;-86
2021/12/30 17:35:43;;;;;;;1.50;1.40;;;;;;;;;;4953475;28;20261;-86
2021/12/30 17:38:30;;;;;;;1.50;1.10;;;;;;;;;;4961187;28;20216;-87
2021/12/30 17:40:59;;;;;;;1.52;1.42;;;;;;;;;;4968696;28;20248;-85
2021/12/30 17:43:26;;;;;;;1.30;1.05;;;;;;;;;;4960556;28;20234;-85
2021/12/30 17:45:57;;;;;;;2.08;1.25;;;;;;;;;;4941159;29;20232;-84
2021/12/30 17:48:26;;;;;;;2.55;1.80;;;;;;;;;;4962145;29;20212;-85
2021/12/30 17:50:58;;;;;;;1.70;1.60;;;;;;;;;;4961027;28;20233;-85
2021/12/30 17:53:27;;;;;;;1.10;1.00;;;;;;;;;;4962191;29;20224;-84
2021/12/30 17:55:55;;;;;;;2.10;0.90;;;;;;;;;;4943763;29;20233;-85
2021/12/30 17:58:23;;;;;;;1.02;1.00;;;;;;;;;;4953949;29;20215;-85
2021/12/30 18:00:50;;;;;;;1.15;0.80;;;;;;;;;;4963260;29;20307;-85
2021/12/30 18:03:17;;;;;;;1.58;1.05;;;;;;;;;;4955577;29;20221;-85
2021/12/30 18:05:48;;;;;;;1.33;1.23;;;;;;;;;;4959424;29;20228;-85
2021/12/30 18:08:17;;;;;;;1.83;1.20;;;;;;;;;;4964905;29;20220;-85
2021/12/30 18:10:45;;;;;;;1.38;1.17;;;;;;;;;;4965075;29;20251;-85
2021/12/30 18:13:12;;;;;;;0.90;0.80;;;;;;;;;;4964385;29;20212;-85
2021/12/30 18:15:45;;;;;;;1.50;1.20;;;;;;;;;;4950090;29;20204;-85
2021/12/30 18:18:13;;;;;;;0.70;0.70;;;;;;;;;;4946626;29;20205;-85
2021/12/30 18:20:40;;;;;;;1.08;1.05;;;;;;;;;;4951214;29;20451;-85
2021/12/30 18:23:11;;;;;;;1.38;1.20;;;;;;;;;;4960290;28;20213;-87
2021/12/30 18:25:40;;;;;;;1.30;1.20;;;;;;;;;;4961952;28;20209;-85
2021/12/30 18:28:16;;;;;;;1.40;1.15;;;;;;;;;;4958428;28;20273;-85
2021/12/30 18:30:55;;;;;;;;;;;;;;;;;;;;;
2021/12/30 18:33:23;;;;;;;0.82;0.82;;;;;;;;;;4966341;28;20204;-86
2021/12/30 18:36:08;;;;;;;1.10;1.10;;;;;;;;;;4956018;28;20213;-85
2021/12/30 18:38:38;;;;;;;1.77;0.60;;;;;;;;;;4954565;28;20211;-86
2021/12/30 18:41:10;;;;;;;1.13;1.00;;;;;;;;;;4966219;28;20208;-86
2021/12/30 18:43:38;;;;;;;1.20;1.10;;;;;;;;;;4955014;28;20264;-85
2021/12/30 18:46:05;;;;;;;1.10;0.90;;;;;;;;;;4960860;28;20219;-85
2021/12/30 18:48:33;;;;;;;1.33;1.23;;;;;;;;;;4966004;28;20271;-85
2021/12/30 18:51:02;;;;;;;1.17;1.10;;;;;;;;;;4965097;28;20240;-86
2021/12/30 18:53:34;;;;;;;1.23;1.10;;;;;;;;;;4958653;28;20336;-86
2021/12/30 18:56:08;;;;;;;1.03;1.03;;;;;;;;;;4956799;28;20272;-85
2021/12/30 18:58:49;;;;;;;1.23;1.00;;;;;;;;;;4949518;28;20205;-86
2021/12/30 19:01:25;;;;;;;1.00;1.00;;;;;;;;;;4961878;28;20206;-86
2021/12/30 19:03:53;;;;;;;1.63;0.90;;;;;;;;;;4961819;28;20318;-86
2021/12/30 19:06:24;;;;;;;1.53;0.80;;;;;;;;;;4960658;28;20282;-85
2021/12/30 19:08:51;;;;;;;2.07;1.10;;;;;;;;;;4956959;28;20209;-87
2021/12/30 19:11:21;;;;;;;2.70;1.13;;;;;;;;;;4955656;28;20201;-86
2021/12/30 19:13:50;;;;;;;1.63;1.37;;;;;;;;;;4950153;28;20232;-86
2021/12/30 19:16:23;;;;;;;1.27;1.07;;;;;;;;;;4952118;28;20696;-86
2021/12/30 19:18:53;;;;;;;1.17;1.07;;;;;;;;;;4953886;28;20272;-85
2021/12/30 19:21:21;;;;;;;1.33;1.10;;;;;;;;;;4948250;28;20206;-85
2021/12/30 19:23:50;;;;;;;1.60;0.90;;;;;;;;;;4962960;28;20204;-85
2021/12/30 19:26:24;;;;;;;1.20;0.98;;;;;;;;;;4954717;28;20256;-85
2021/12/30 19:28:53;;;;;;;1.40;1.10;;;;;;;;;;4954162;28;20216;-85
2021/12/30 22:01:34;;;;;;;1.90;1.80;;;;;;;;;;4866234;29;20207;-83
2021/12/30 22:04:10;;;;;;;2.03;1.60;;;;;;;;;;4897809;29;20217;-82
2021/12/30 22:09:27;;;;;;;1.83;1.30;;;;;;;;;;4947135;28;20224;-84
2021/12/30 22:12:07;;;;;;;2.40;1.37;;;;;;;;;;4958824;28;20219;-85
2021/12/30 22:14:35;;;;;;;1.57;1.43;;;;;;;;;;4963437;28;20227;-84
2021/12/30 22:17:06;;;;;;;2.10;1.90;;;;;;;;;;4964859;28;20204;-84
2021/12/30 22:19:37;;;;;;;1.63;1.30;;;;;;;;;;4961422;28;20275;-85
2021/12/30 22:22:10;;;;;;;1.57;1.40;;;;;;;;;;4962922;28;20200;-84
2021/12/30 22:24:44;;;;;;;2.30;1.50;;;;;;;;;;4960990;28;20228;-85
2021/12/30 22:27:20;;;;;;;1.60;1.50;;;;;;;;;;4962732;28;20207;-84
2021/12/30 22:29:50;;;;;;;1.50;1.40;;;;;;;;;;4961371;28;20259;-84
2021/12/30 22:32:34;;;;;;;1.30;1.20;;;;;;;;;;4957561;28;20197;-84
2021/12/30 22:35:02;;;;;;;2.27;1.40;;;;;;;;;;4963823;28;20220;-85
2021/12/30 22:37:38;;;;;;;1.50;1.40;;;;;;;;;;4962714;28;20211;-85
2021/12/30 22:43:14;;;;;;;1.30;1.00;;;;;;;;;;4959376;28;20255;-85
2021/12/30 22:51:50;;;;;;;1.52;1.40;;;;;;;;;;4955543;28;20312;-84
2021/12/30 22:54:23;;;;;;;1.10;1.00;;;;;;;;;;4965722;28;20209;-83
2021/12/30 22:57:25;;;;;;;2.50;1.08;;;;;;;;;;4951562;28;20220;-84
2021/12/30 23:02:45;;;;;;;1.27;1.17;;;;;;;;;;4956037;28;20212;-85
2021/12/30 23:05:18;;;;;;;1.37;1.20;;;;;;;;;;4960774;28;20197;-85
2021/12/30 23:07:48;;;;;;;2.53;1.17;;;;;;;;;;4959952;28;20201;-85
2021/12/30 23:10:18;;;;;;;1.00;1.00;;;;;;;;;;4953007;28;20269;-85
2021/12/30 23:15:31;;;;;;;1.20;1.10;;;;;;;;;;4949263;29;20209;-86
2021/12/30 23:18:05;;;;;;;1.85;1.20;;;;;;;;;;4955434;28;20204;-85
2021/12/30 23:20:39;;;;;;;1.27;1.17;;;;;;;;;;4952793;28;20248;-84
2021/12/30 23:23:07;;;;;;;1.47;1.30;;;;;;;;;;4953001;28;20209;-85
2021/12/30 23:25:48;;;;;;;1.40;0.97;;;;;;;;;;4948988;28;20227;-85
2021/12/30 23:28:25;;;;;;;1.07;1.00;;;;;;;;;;4959664;28;20205;-86
2021/12/30 23:31:07;;;;;;;1.30;1.20;;;;;;;;;;4963637;28;20239;-85
2021/12/30 23:33:41;;;;;;;2.77;1.30;;;;;;;;;;4950749;28;20207;-85
2021/12/30 23:36:16;;;;;;;1.87;1.47;;;;;;;;;;4954991;28;20225;-85
2021/12/30 23:38:52;;;;;;;2.47;1.30;;;;;;;;;;4959754;28;20236;-86
2021/12/30 23:41:22;;;;;;;1.40;1.00;;;;;;;;;;4953121;28;20235;-85
2021/12/30 23:43:52;;;;;;;2.27;1.10;;;;;;;;;;4960379;28;20208;-85
2021/12/30 23:46:33;;;;;;;1.20;1.10;;;;;;;;;;4957622;28;20197;-85
2021/12/30 23:49:24;;;;;;;1.20;1.10;;;;;;;;;;4948049;28;20356;-85
2021/12/30 23:51:58;;;;;;;1.30;1.20;;;;;;;;;;4956661;28;20216;-84
2021/12/30 23:54:31;;;;;;;1.08;0.95;;;;;;;;;;4956156;28;20205;-85
2021/12/30 23:57:02;;;;;;;1.70;1.30;;;;;;;;;;4953181;28;20205;-85
2021/12/30 23:59:29;;;;;;;1.47;1.10;;;;;;;;;;4955560;28;20252;-85
